sensor_id;sensor_type;location;lat;lon;timestamp;temperature;humidity
8214;DHT22;4148;47.974;7.824;2023-09-30T00:01:28;16.30;1.00
8214;DHT22;4148;47.974;7.824;2023-09-30T00:03:56;16.20;50.00
8214;DHT22;4148;47.974;7.824;2023-09-30T00:06:25;16.20;1.00
8214;DHT22;4148;47.974;7.824;2023-09-30T00:08:52;16.20;99.90
8214;DHT22;4148;47.974;7.824;2023-09-30T00:11:20;16.20;43.50
8214;DHT22;4148;47.974;7.824;2023-09-30T00:13:48;16.20;99.90
8214;DHT22;4148;47.974;7.824;2023-09-30T00:16:18;16.10;99.90
8214;DHT22;4148;47.974;7.824;2023-09-30T00:18:46;16.10;99.90
8214;DHT22;4148;47.974;7.824;2023-09-30T00:21:14;16.00;99.90
8214;DHT22;4148;47.974;7.824;2023-09-30T00:23:42;16.00;99.90
8214;DHT22;4148;47.974;7.824;2023-09-30T00:26:10;15.90;99.90
8214;DHT22;4148;47.974;7.824;2023-09-30T00:28:38;15.90;99.90
8214;DHT22;4148;47.974;7.824;2023-09-30T00:31:07;15.90;99.90
8214;DHT22;4148;47.974;7.824;2023-09-30T00:33:38;16.00;99.90
8214;DHT22;4148;47.974;7.824;2023-09-30T00:36:07;16.00;99.90
8214;DHT22;4148;47.974;7.824;2023-09-30T00:38:36;16.00;99.90
8214;DHT22;4148;47.974;7.824;2023-09-30T00:41:04;16.10;99.90
8214;DHT22;4148;47.974;7.824;2023-09-30T00:43:33;16.00;99.90
8214;DHT22;4148;47.974;7.824;2023-09-30T00:46:04;16.00;99.90
8214;DHT22;4148;47.974;7.824;2023-09-30T00:48:33;16.00;99.90
8214;DHT22;4148;47.974;7.824;2023-09-30T00:51:03;16.00;99.90
8214;DHT22;4148;47.974;7.824;2023-09-30T00:53:31;15.90;1.00
8214;DHT22;4148;47.974;7.824;2023-09-30T00:56:00;15.80;1.00
8214;DHT22;4148;47.974;7.824;2023-09-30T00:58:29;15.80;1.00
8214;DHT22;4148;47.974;7.824;2023-09-30T01:00:58;15.90;1.00
8214;DHT22;4148;47.974;7.824;2023-09-30T01:03:27;15.80;1.00
8214;DHT22;4148;47.974;7.824;2023-09-30T01:05:55;15.70;1.00
8214;DHT22;4148;47.974;7.824;2023-09-30T01:08:24;15.70;1.00
8214;DHT22;4148;47.974;7.824;2023-09-30T01:10:52;15.80;1.00
8214;DHT22;4148;47.974;7.824;2023-09-30T01:13:21;15.80;1.00
8214;DHT22;4148;47.974;7.824;2023-09-30T01:15:48;15.80;99.90
8214;DHT22;4148;47.974;7.824;2023-09-30T01:18:16;15.70;99.90
8214;DHT22;4148;47.974;7.824;2023-09-30T01:20:44;15.60;99.90
8214;DHT22;4148;47.974;7.824;2023-09-30T01:23:14;15.50;1.00
8214;DHT22;4148;47.974;7.824;2023-09-30T01:25:42;15.50;1.00
8214;DHT22;4148;47.974;7.824;2023-09-30T01:28:10;15.40;1.00
8214;DHT22;4148;47.974;7.824;2023-09-30T01:30:38;15.40;1.00
8214;DHT22;4148;47.974;7.824;2023-09-30T01:33:06;15.30;1.00
8214;DHT22;4148;47.974;7.824;2023-09-30T01:35:34;15.20;1.00
8214;DHT22;4148;47.974;7.824;2023-09-30T01:38:02;15.20;1.00
8214;DHT22;4148;47.974;7.824;2023-09-30T01:40:32;15.20;1.00
8214;DHT22;4148;47.974;7.824;2023-09-30T01:43:00;15.20;1.00
8214;DHT22;4148;47.974;7.824;2023-09-30T01:45:28;15.20;1.00
8214;DHT22;4148;47.974;7.824;2023-09-30T01:47:56;15.20;1.00
8214;DHT22;4148;47.974;7.824;2023-09-30T01:50:24;15.40;1.00
8214;DHT22;4148;47.974;7.824;2023-09-30T01:52:52;15.30;1.00
8214;DHT22;4148;47.974;7.824;2023-09-30T01:55:20;15.40;1.00
8214;DHT22;4148;47.974;7.824;2023-09-30T01:57:49;15.40;1.00
8214;DHT22;4148;47.974;7.824;2023-09-30T02:00:17;15.40;1.00
8214;DHT22;4148;47.974;7.824;2023-09-30T02:02:45;15.40;1.00
8214;DHT22;4148;47.974;7.824;2023-09-30T02:05:13;15.40;1.00
8214;DHT22;4148;47.974;7.824;2023-09-30T02:07:41;15.40;99.90
8214;DHT22;4148;47.974;7.824;2023-09-30T02:10:09;15.40;99.90
8214;DHT22;4148;47.974;7.824;2023-09-30T02:12:38;15.30;1.00
8214;DHT22;4148;47.974;7.824;2023-09-30T02:15:08;15.20;1.00
8214;DHT22;4148;47.974;7.824;2023-09-30T02:17:37;15.20;1.00
8214;DHT22;4148;47.974;7.824;2023-09-30T02:20:06;15.10;1.00
8214;DHT22;4148;47.974;7.824;2023-09-30T02:22:39;15.10;1.00
8214;DHT22;4148;47.974;7.824;2023-09-30T02:25:08;15.20;1.00
8214;DHT22;4148;47.974;7.824;2023-09-30T02:27:36;15.20;1.00
8214;DHT22;4148;47.974;7.824;2023-09-30T02:30:04;15.10;99.90
8214;DHT22;4148;47.974;7.824;2023-09-30T02:32:34;15.00;1.00
8214;DHT22;4148;47.974;7.824;2023-09-30T02:35:02;14.90;1.00
8214;DHT22;4148;47.974;7.824;2023-09-30T02:37:32;14.80;1.00
8214;DHT22;4148;47.974;7.824;2023-09-30T02:40:02;14.80;1.00
8214;DHT22;4148;47.974;7.824;2023-09-30T02:42:34;14.70;1.00
8214;DHT22;4148;47.974;7.824;2023-09-30T02:45:03;14.70;1.00
8214;DHT22;4148;47.974;7.824;2023-09-30T02:47:31;14.70;1.00
8214;DHT22;4148;47.974;7.824;2023-09-30T02:50:01;14.60;1.00
8214;DHT22;4148;47.974;7.824;2023-09-30T02:52:29;14.50;1.00
8214;DHT22;4148;47.974;7.824;2023-09-30T02:54:57;14.50;1.00
8214;DHT22;4148;47.974;7.824;2023-09-30T02:57:26;14.40;1.00
8214;DHT22;4148;47.974;7.824;2023-09-30T02:59:55;14.40;1.00
8214;DHT22;4148;47.974;7.824;2023-09-30T03:02:23;14.40;1.00
8214;DHT22;4148;47.974;7.824;2023-09-30T03:04:51;14.60;1.00
8214;DHT22;4148;47.974;7.824;2023-09-30T03:07:20;14.60;1.00
8214;DHT22;4148;47.974;7.824;2023-09-30T03:09:49;14.50;1.00
8214;DHT22;4148;47.974;7.824;2023-09-30T03:12:19;14.40;1.00
8214;DHT22;4148;47.974;7.824;2023-09-30T03:14:48;14.20;1.00
8214;DHT22;4148;47.974;7.824;2023-09-30T03:17:15;14.20;1.00
8214;DHT22;4148;47.974;7.824;2023-09-30T03:19:44;14.20;1.00
8214;DHT22;4148;47.974;7.824;2023-09-30T03:22:12;14.20;1.00
8214;DHT22;4148;47.974;7.824;2023-09-30T03:24:41;14.20;1.00
8214;DHT22;4148;47.974;7.824;2023-09-30T03:27:09;14.30;1.00
8214;DHT22;4148;47.974;7.824;2023-09-30T03:29:37;14.30;1.00
8214;DHT22;4148;47.974;7.824;2023-09-30T03:32:05;14.20;1.00
8214;DHT22;4148;47.974;7.824;2023-09-30T03:34:34;14.20;1.00
8214;DHT22;4148;47.974;7.824;2023-09-30T03:37:03;14.10;1.00
8214;DHT22;4148;47.974;7.824;2023-09-30T03:39:33;14.00;1.00
8214;DHT22;4148;47.974;7.824;2023-09-30T03:42:03;14.10;1.00
8214;DHT22;4148;47.974;7.824;2023-09-30T03:44:31;14.10;1.00
8214;DHT22;4148;47.974;7.824;2023-09-30T03:46:59;14.10;1.00
8214;DHT22;4148;47.974;7.824;2023-09-30T03:49:28;14.20;1.00
8214;DHT22;4148;47.974;7.824;2023-09-30T03:51:56;14.10;1.00
8214;DHT22;4148;47.974;7.824;2023-09-30T03:54:24;14.10;1.00
8214;DHT22;4148;47.974;7.824;2023-09-30T03:56:53;14.10;1.00
8214;DHT22;4148;47.974;7.824;2023-09-30T03:59:22;14.10;1.00
8214;DHT22;4148;47.974;7.824;2023-09-30T04:01:50;14.00;1.00
8214;DHT22;4148;47.974;7.824;2023-09-30T04:04:20;13.90;1.00
8214;DHT22;4148;47.974;7.824;2023-09-30T04:06:48;13.90;1.00
8214;DHT22;4148;47.974;7.824;2023-09-30T04:09:18;13.90;1.00
8214;DHT22;4148;47.974;7.824;2023-09-30T04:11:46;14.00;1.00
8214;DHT22;4148;47.974;7.824;2023-09-30T04:14:14;13.90;1.00
8214;DHT22;4148;47.974;7.824;2023-09-30T04:16:45;13.90;1.00
8214;DHT22;4148;47.974;7.824;2023-09-30T04:19:13;14.00;1.00
8214;DHT22;4148;47.974;7.824;2023-09-30T04:21:40;14.10;1.00
8214;DHT22;4148;47.974;7.824;2023-09-30T04:24:09;14.00;1.00
8214;DHT22;4148;47.974;7.824;2023-09-30T04:26:37;13.90;1.00
8214;DHT22;4148;47.974;7.824;2023-09-30T04:29:06;13.90;1.00
8214;DHT22;4148;47.974;7.824;2023-09-30T04:31:37;13.90;1.00
8214;DHT22;4148;47.974;7.824;2023-09-30T04:34:07;13.70;1.00
8214;DHT22;4148;47.974;7.824;2023-09-30T04:36:35;13.60;1.00
8214;DHT22;4148;47.974;7.824;2023-09-30T04:39:03;13.50;1.00
8214;DHT22;4148;47.974;7.824;2023-09-30T04:41:32;13.60;1.00
8214;DHT22;4148;47.974;7.824;2023-09-30T04:44:00;13.60;1.00
8214;DHT22;4148;47.974;7.824;2023-09-30T04:46:28;13.60;1.00
8214;DHT22;4148;47.974;7.824;2023-09-30T04:48:56;13.70;1.00
8214;DHT22;4148;47.974;7.824;2023-09-30T04:51:25;13.70;1.00
8214;DHT22;4148;47.974;7.824;2023-09-30T04:53:54;13.70;1.00
8214;DHT22;4148;47.974;7.824;2023-09-30T04:56:22;13.80;1.00
8214;DHT22;4148;47.974;7.824;2023-09-30T04:58:50;13.70;1.00
8214;DHT22;4148;47.974;7.824;2023-09-30T05:01:19;13.70;1.00
8214;DHT22;4148;47.974;7.824;2023-09-30T05:03:47;13.70;1.00
8214;DHT22;4148;47.974;7.824;2023-09-30T05:06:16;13.70;1.00
8214;DHT22;4148;47.974;7.824;2023-09-30T05:08:45;13.90;1.00
8214;DHT22;4148;47.974;7.824;2023-09-30T05:11:14;13.90;1.00
8214;DHT22;4148;47.974;7.824;2023-09-30T05:13:42;13.80;1.00
8214;DHT22;4148;47.974;7.824;2023-09-30T05:16:10;13.90;1.00
8214;DHT22;4148;47.974;7.824;2023-09-30T05:18:41;13.90;1.00
8214;DHT22;4148;47.974;7.824;2023-09-30T05:21:09;13.90;1.00
8214;DHT22;4148;47.974;7.824;2023-09-30T05:23:37;13.90;1.00
8214;DHT22;4148;47.974;7.824;2023-09-30T05:26:07;13.90;1.00
8214;DHT22;4148;47.974;7.824;2023-09-30T05:28:34;13.90;1.00
8214;DHT22;4148;47.974;7.824;2023-09-30T05:31:02;13.80;1.00
8214;DHT22;4148;47.974;7.824;2023-09-30T05:33:30;13.80;1.00
8214;DHT22;4148;47.974;7.824;2023-09-30T05:35:58;13.80;1.00
8214;DHT22;4148;47.974;7.824;2023-09-30T05:38:29;13.80;1.00
8214;DHT22;4148;47.974;7.824;2023-09-30T05:40:58;13.80;1.00
8214;DHT22;4148;47.974;7.824;2023-09-30T05:43:28;13.90;1.00
8214;DHT22;4148;47.974;7.824;2023-09-30T05:45:56;14.00;1.00
8214;DHT22;4148;47.974;7.824;2023-09-30T05:48:27;14.10;1.00
8214;DHT22;4148;47.974;7.824;2023-09-30T05:50:55;14.40;1.00
8214;DHT22;4148;47.974;7.824;2023-09-30T05:53:23;14.40;1.00
8214;DHT22;4148;47.974;7.824;2023-09-30T05:55:51;14.20;1.00
8214;DHT22;4148;47.974;7.824;2023-09-30T05:58:19;14.20;1.00
8214;DHT22;4148;47.974;7.824;2023-09-30T06:00:48;14.10;1.00
8214;DHT22;4148;47.974;7.824;2023-09-30T06:03:17;14.00;1.00
8214;DHT22;4148;47.974;7.824;2023-09-30T06:05:45;14.10;1.00
8214;DHT22;4148;47.974;7.824;2023-09-30T06:08:14;14.10;1.00
8214;DHT22;4148;47.974;7.824;2023-09-30T06:10:42;14.30;1.00
8214;DHT22;4148;47.974;7.824;2023-09-30T06:13:11;14.30;1.00
8214;DHT22;4148;47.974;7.824;2023-09-30T06:15:39;14.30;1.00
8214;DHT22;4148;47.974;7.824;2023-09-30T06:18:10;14.20;1.00
8214;DHT22;4148;47.974;7.824;2023-09-30T06:20:40;14.20;1.00
8214;DHT22;4148;47.974;7.824;2023-09-30T06:23:08;14.20;1.00
8214;DHT22;4148;47.974;7.824;2023-09-30T06:25:37;14.30;1.00
8214;DHT22;4148;47.974;7.824;2023-09-30T06:28:06;14.40;1.00
8214;DHT22;4148;47.974;7.824;2023-09-30T06:30:35;14.40;1.00
8214;DHT22;4148;47.974;7.824;2023-09-30T06:33:04;14.40;1.00
8214;DHT22;4148;47.974;7.824;2023-09-30T06:35:34;14.40;1.00
8214;DHT22;4148;47.974;7.824;2023-09-30T06:38:05;14.40;1.00
8214;DHT22;4148;47.974;7.824;2023-09-30T06:40:34;14.60;1.00
8214;DHT22;4148;47.974;7.824;2023-09-30T06:43:06;14.50;1.00
8214;DHT22;4148;47.974;7.824;2023-09-30T06:45:34;14.50;1.00
8214;DHT22;4148;47.974;7.824;2023-09-30T06:48:08;14.60;1.00
8214;DHT22;4148;47.974;7.824;2023-09-30T06:50:43;14.60;1.00
8214;DHT22;4148;47.974;7.824;2023-09-30T06:53:12;14.80;1.00
8214;DHT22;4148;47.974;7.824;2023-09-30T06:55:40;15.00;1.00
8214;DHT22;4148;47.974;7.824;2023-09-30T06:58:08;15.20;1.00
8214;DHT22;4148;47.974;7.824;2023-09-30T07:00:37;15.30;1.00
8214;DHT22;4148;47.974;7.824;2023-09-30T07:03:05;15.20;1.00
8214;DHT22;4148;47.974;7.824;2023-09-30T07:05:35;15.30;1.00
8214;DHT22;4148;47.974;7.824;2023-09-30T07:08:05;15.30;1.00
8214;DHT22;4148;47.974;7.824;2023-09-30T07:10:33;15.40;1.00
8214;DHT22;4148;47.974;7.824;2023-09-30T07:13:02;15.50;1.00
8214;DHT22;4148;47.974;7.824;2023-09-30T07:15:30;15.60;1.00
8214;DHT22;4148;47.974;7.824;2023-09-30T07:17:58;15.60;1.00
8214;DHT22;4148;47.974;7.824;2023-09-30T07:20:26;15.70;1.00
8214;DHT22;4148;47.974;7.824;2023-09-30T07:22:55;15.80;1.00
8214;DHT22;4148;47.974;7.824;2023-09-30T07:25:45;15.80;1.00
8214;DHT22;4148;47.974;7.824;2023-09-30T07:28:13;15.90;1.00
8214;DHT22;4148;47.974;7.824;2023-09-30T07:30:41;16.00;1.00
8214;DHT22;4148;47.974;7.824;2023-09-30T07:33:09;16.00;1.00
8214;DHT22;4148;47.974;7.824;2023-09-30T07:35:38;16.10;1.00
8214;DHT22;4148;47.974;7.824;2023-09-30T07:38:06;16.30;1.00
8214;DHT22;4148;47.974;7.824;2023-09-30T07:40:34;16.40;1.00
8214;DHT22;4148;47.974;7.824;2023-09-30T07:43:03;16.30;99.90
8214;DHT22;4148;47.974;7.824;2023-09-30T07:45:31;16.40;1.00
8214;DHT22;4148;47.974;7.824;2023-09-30T07:47:59;16.40;1.00
8214;DHT22;4148;47.974;7.824;2023-09-30T07:50:29;16.60;99.90
8214;DHT22;4148;47.974;7.824;2023-09-30T07:52:57;16.60;99.90
8214;DHT22;4148;47.974;7.824;2023-09-30T07:55:27;16.70;1.00
8214;DHT22;4148;47.974;7.824;2023-09-30T07:57:56;16.80;99.90
8214;DHT22;4148;47.974;7.824;2023-09-30T08:00:27;16.70;99.90
8214;DHT22;4148;47.974;7.824;2023-09-30T08:02:55;16.80;99.90
8214;DHT22;4148;47.974;7.824;2023-09-30T08:05:23;16.90;99.90
8214;DHT22;4148;47.974;7.824;2023-09-30T08:07:51;17.10;99.90
8214;DHT22;4148;47.974;7.824;2023-09-30T08:10:19;17.20;30.70
8214;DHT22;4148;47.974;7.824;2023-09-30T08:12:47;17.20;99.90
8214;DHT22;4148;47.974;7.824;2023-09-30T08:15:16;17.30;99.90
8214;DHT22;4148;47.974;7.824;2023-09-30T08:17:46;17.40;1.00
8214;DHT22;4148;47.974;7.824;2023-09-30T08:20:13;17.50;9.10
8214;DHT22;4148;47.974;7.824;2023-09-30T08:22:41;17.70;7.60
8214;DHT22;4148;47.974;7.824;2023-09-30T08:25:09;17.80;1.00
8214;DHT22;4148;47.974;7.824;2023-09-30T08:27:38;17.90;99.20
8214;DHT22;4148;47.974;7.824;2023-09-30T08:30:07;18.00;99.90
8214;DHT22;4148;47.974;7.824;2023-09-30T08:32:37;18.20;99.90
8214;DHT22;4148;47.974;7.824;2023-09-30T08:35:08;18.50;99.90
8214;DHT22;4148;47.974;7.824;2023-09-30T08:37:36;18.70;99.90
8214;DHT22;4148;47.974;7.824;2023-09-30T08:40:06;19.00;87.20
8214;DHT22;4148;47.974;7.824;2023-09-30T08:42:38;19.20;1.00
8214;DHT22;4148;47.974;7.824;2023-09-30T08:45:10;19.20;91.60
8214;DHT22;4148;47.974;7.824;2023-09-30T08:47:38;19.20;1.00
8214;DHT22;4148;47.974;7.824;2023-09-30T08:50:09;19.20;99.90
8214;DHT22;4148;47.974;7.824;2023-09-30T08:52:38;19.10;48.50
8214;DHT22;4148;47.974;7.824;2023-09-30T08:55:08;19.10;2.80
8214;DHT22;4148;47.974;7.824;2023-09-30T08:57:37;19.10;99.90
8214;DHT22;4148;47.974;7.824;2023-09-30T09:00:08;19.10;1.00
8214;DHT22;4148;47.974;7.824;2023-09-30T09:02:38;19.10;53.20
8214;DHT22;4148;47.974;7.824;2023-09-30T09:05:07;19.00;1.00
8214;DHT22;4148;47.974;7.824;2023-09-30T09:07:36;19.00;1.00
8214;DHT22;4148;47.974;7.824;2023-09-30T09:10:05;19.20;99.90
8214;DHT22;4148;47.974;7.824;2023-09-30T09:12:36;19.60;99.90
8214;DHT22;4148;47.974;7.824;2023-09-30T09:15:06;19.80;99.90
8214;DHT22;4148;47.974;7.824;2023-09-30T09:17:41;19.90;99.90
8214;DHT22;4148;47.974;7.824;2023-09-30T09:20:11;19.90;99.90
8214;DHT22;4148;47.974;7.824;2023-09-30T09:22:43;19.80;1.00
8214;DHT22;4148;47.974;7.824;2023-09-30T09:25:11;19.90;99.90
8214;DHT22;4148;47.974;7.824;2023-09-30T09:27:39;19.80;99.90
8214;DHT22;4148;47.974;7.824;2023-09-30T09:30:18;19.80;1.00
8214;DHT22;4148;47.974;7.824;2023-09-30T09:32:53;20.10;99.90
8214;DHT22;4148;47.974;7.824;2023-09-30T09:35:21;20.30;99.90
8214;DHT22;4148;47.974;7.824;2023-09-30T09:37:57;20.50;37.50
8214;DHT22;4148;47.974;7.824;2023-09-30T09:40:27;20.50;1.00
8214;DHT22;4148;47.974;7.824;2023-09-30T09:42:55;20.90;1.00
8214;DHT22;4148;47.974;7.824;2023-09-30T09:45:25;21.10;99.90
8214;DHT22;4148;47.974;7.824;2023-09-30T09:47:54;21.30;99.90
8214;DHT22;4148;47.974;7.824;2023-09-30T09:50:23;21.40;99.90
8214;DHT22;4148;47.974;7.824;2023-09-30T09:52:53;21.80;99.90
8214;DHT22;4148;47.974;7.824;2023-09-30T09:55:23;22.20;1.00
8214;DHT22;4148;47.974;7.824;2023-09-30T09:57:52;22.50;1.00
8214;DHT22;4148;47.974;7.824;2023-09-30T10:00:21;22.80;1.00
8214;DHT22;4148;47.974;7.824;2023-09-30T10:02:50;22.90;1.00
8214;DHT22;4148;47.974;7.824;2023-09-30T10:05:20;23.00;1.00
8214;DHT22;4148;47.974;7.824;2023-09-30T10:07:52;23.00;1.00
8214;DHT22;4148;47.974;7.824;2023-09-30T10:10:23;23.20;1.00
8214;DHT22;4148;47.974;7.824;2023-09-30T10:12:52;23.30;1.00
8214;DHT22;4148;47.974;7.824;2023-09-30T10:15:39;23.30;1.00
8214;DHT22;4148;47.974;7.824;2023-09-30T10:18:11;23.60;1.00
8214;DHT22;4148;47.974;7.824;2023-09-30T10:20:43;23.70;1.00
8214;DHT22;4148;47.974;7.824;2023-09-30T10:23:18;23.90;1.00
8214;DHT22;4148;47.974;7.824;2023-09-30T10:25:49;24.00;1.00
8214;DHT22;4148;47.974;7.824;2023-09-30T10:28:37;24.00;1.00
8214;DHT22;4148;47.974;7.824;2023-09-30T10:31:14;24.10;1.00
8214;DHT22;4148;47.974;7.824;2023-09-30T10:34:21;24.20;1.00
8214;DHT22;4148;47.974;7.824;2023-09-30T10:36:49;24.10;1.00
8214;DHT22;4148;47.974;7.824;2023-09-30T10:39:56;24.30;1.00
8214;DHT22;4148;47.974;7.824;2023-09-30T10:42:49;24.30;1.00
8214;DHT22;4148;47.974;7.824;2023-09-30T10:45:51;24.30;99.90
8214;DHT22;4148;47.974;7.824;2023-09-30T10:48:35;24.40;99.90
8214;DHT22;4148;47.974;7.824;2023-09-30T10:51:14;24.80;99.90
8214;DHT22;4148;47.974;7.824;2023-09-30T10:53:44;25.00;99.90
8214;DHT22;4148;47.974;7.824;2023-09-30T10:56:13;24.90;99.90
8214;DHT22;4148;47.974;7.824;2023-09-30T10:58:44;24.90;99.90
8214;DHT22;4148;47.974;7.824;2023-09-30T11:01:14;24.90;99.90
8214;DHT22;4148;47.974;7.824;2023-09-30T11:03:42;25.00;99.90
8214;DHT22;4148;47.974;7.824;2023-09-30T11:06:12;25.10;99.90
8214;DHT22;4148;47.974;7.824;2023-09-30T11:08:51;25.20;99.90
8214;DHT22;4148;47.974;7.824;2023-09-30T11:11:34;25.30;99.90
8214;DHT22;4148;47.974;7.824;2023-09-30T11:14:04;25.40;99.90
8214;DHT22;4148;47.974;7.824;2023-09-30T11:16:44;25.40;99.90
8214;DHT22;4148;47.974;7.824;2023-09-30T11:19:13;25.30;99.90
8214;DHT22;4148;47.974;7.824;2023-09-30T11:21:42;25.10;99.90
8214;DHT22;4148;47.974;7.824;2023-09-30T11:24:13;25.10;99.90
8214;DHT22;4148;47.974;7.824;2023-09-30T11:26:41;25.00;99.90
8214;DHT22;4148;47.974;7.824;2023-09-30T11:29:12;25.10;99.90
8214;DHT22;4148;47.974;7.824;2023-09-30T11:31:44;25.30;99.90
8214;DHT22;4148;47.974;7.824;2023-09-30T11:34:17;25.30;99.90
8214;DHT22;4148;47.974;7.824;2023-09-30T11:36:48;25.30;99.90
8214;DHT22;4148;47.974;7.824;2023-09-30T11:39:21;25.40;99.90
8214;DHT22;4148;47.974;7.824;2023-09-30T11:41:50;25.60;99.90
8214;DHT22;4148;47.974;7.824;2023-09-30T11:44:20;25.60;99.90
8214;DHT22;4148;47.974;7.824;2023-09-30T11:46:50;25.40;99.90
8214;DHT22;4148;47.974;7.824;2023-09-30T11:49:27;25.20;99.90
8214;DHT22;4148;47.974;7.824;2023-09-30T11:51:55;25.10;99.90
8214;DHT22;4148;47.974;7.824;2023-09-30T11:54:28;25.00;99.90
8214;DHT22;4148;47.974;7.824;2023-09-30T11:56:56;24.80;99.90
8214;DHT22;4148;47.974;7.824;2023-09-30T11:59:26;24.70;99.90
8214;DHT22;4148;47.974;7.824;2023-09-30T12:01:54;24.40;99.90
8214;DHT22;4148;47.974;7.824;2023-09-30T12:04:39;24.30;99.90
8214;DHT22;4148;47.974;7.824;2023-09-30T12:07:08;24.30;99.90
8214;DHT22;4148;47.974;7.824;2023-09-30T12:09:36;24.20;99.90
8214;DHT22;4148;47.974;7.824;2023-09-30T12:12:07;24.10;99.90
8214;DHT22;4148;47.974;7.824;2023-09-30T12:14:38;24.20;99.90
8214;DHT22;4148;47.974;7.824;2023-09-30T12:17:07;24.40;99.90
8214;DHT22;4148;47.974;7.824;2023-09-30T12:19:39;24.40;99.90
8214;DHT22;4148;47.974;7.824;2023-09-30T12:22:09;24.30;99.90
8214;DHT22;4148;47.974;7.824;2023-09-30T12:24:38;24.10;99.90
8214;DHT22;4148;47.974;7.824;2023-09-30T12:27:06;24.00;99.90
8214;DHT22;4148;47.974;7.824;2023-09-30T12:29:34;23.80;99.90
8214;DHT22;4148;47.974;7.824;2023-09-30T12:32:06;23.80;99.90
8214;DHT22;4148;47.974;7.824;2023-09-30T12:34:35;23.60;99.90
8214;DHT22;4148;47.974;7.824;2023-09-30T12:37:03;23.40;99.90
8214;DHT22;4148;47.974;7.824;2023-09-30T12:39:31;23.40;99.90
8214;DHT22;4148;47.974;7.824;2023-09-30T12:42:00;23.30;99.90
8214;DHT22;4148;47.974;7.824;2023-09-30T12:44:28;23.10;99.90
8214;DHT22;4148;47.974;7.824;2023-09-30T12:46:56;23.00;99.90
8214;DHT22;4148;47.974;7.824;2023-09-30T12:49:25;22.90;99.90
8214;DHT22;4148;47.974;7.824;2023-09-30T12:51:53;22.80;99.90
8214;DHT22;4148;47.974;7.824;2023-09-30T12:54:22;22.80;99.90
8214;DHT22;4148;47.974;7.824;2023-09-30T12:56:51;22.70;99.90
8214;DHT22;4148;47.974;7.824;2023-09-30T12:59:19;22.70;99.90
8214;DHT22;4148;47.974;7.824;2023-09-30T13:01:50;22.70;99.90
8214;DHT22;4148;47.974;7.824;2023-09-30T13:04:18;22.70;99.90
8214;DHT22;4148;47.974;7.824;2023-09-30T13:06:48;22.70;99.90
8214;DHT22;4148;47.974;7.824;2023-09-30T13:09:17;22.70;99.90
8214;DHT22;4148;47.974;7.824;2023-09-30T13:11:46;22.70;99.90
8214;DHT22;4148;47.974;7.824;2023-09-30T13:14:14;22.70;99.90
8214;DHT22;4148;47.974;7.824;2023-09-30T13:16:44;22.70;99.90
8214;DHT22;4148;47.974;7.824;2023-09-30T13:19:12;22.80;99.90
8214;DHT22;4148;47.974;7.824;2023-09-30T13:21:42;22.80;99.90
8214;DHT22;4148;47.974;7.824;2023-09-30T13:24:12;22.80;99.90
8214;DHT22;4148;47.974;7.824;2023-09-30T13:26:40;22.80;99.90
8214;DHT22;4148;47.974;7.824;2023-09-30T13:29:08;22.80;99.90
8214;DHT22;4148;47.974;7.824;2023-09-30T13:31:38;22.80;99.90
8214;DHT22;4148;47.974;7.824;2023-09-30T13:34:06;22.80;99.90
8214;DHT22;4148;47.974;7.824;2023-09-30T13:36:34;22.70;99.90
8214;DHT22;4148;47.974;7.824;2023-09-30T13:39:03;22.70;99.90
8214;DHT22;4148;47.974;7.824;2023-09-30T13:41:35;22.70;99.90
8214;DHT22;4148;47.974;7.824;2023-09-30T13:44:03;22.70;99.90
8214;DHT22;4148;47.974;7.824;2023-09-30T13:46:31;22.60;99.90
8214;DHT22;4148;47.974;7.824;2023-09-30T13:48:59;22.60;99.90
8214;DHT22;4148;47.974;7.824;2023-09-30T13:51:27;22.60;99.90
8214;DHT22;4148;47.974;7.824;2023-09-30T13:53:55;22.70;99.90
8214;DHT22;4148;47.974;7.824;2023-09-30T13:56:23;22.60;99.90
8214;DHT22;4148;47.974;7.824;2023-09-30T13:58:52;22.70;99.90
8214;DHT22;4148;47.974;7.824;2023-09-30T14:01:20;22.60;99.90
8214;DHT22;4148;47.974;7.824;2023-09-30T14:03:49;22.60;99.90
8214;DHT22;4148;47.974;7.824;2023-09-30T14:06:22;22.50;99.90
8214;DHT22;4148;47.974;7.824;2023-09-30T14:08:50;22.60;99.90
8214;DHT22;4148;47.974;7.824;2023-09-30T14:11:19;22.60;99.90
8214;DHT22;4148;47.974;7.824;2023-09-30T14:13:47;22.60;99.90
8214;DHT22;4148;47.974;7.824;2023-09-30T14:16:17;22.60;99.90
8214;DHT22;4148;47.974;7.824;2023-09-30T14:18:45;22.50;99.90
8214;DHT22;4148;47.974;7.824;2023-09-30T14:21:14;22.40;99.90
8214;DHT22;4148;47.974;7.824;2023-09-30T14:23:42;22.30;99.90
8214;DHT22;4148;47.974;7.824;2023-09-30T14:26:10;22.30;99.90
8214;DHT22;4148;47.974;7.824;2023-09-30T14:28:38;22.30;99.90
8214;DHT22;4148;47.974;7.824;2023-09-30T14:31:06;22.10;99.90
8214;DHT22;4148;47.974;7.824;2023-09-30T14:33:36;22.10;99.90
8214;DHT22;4148;47.974;7.824;2023-09-30T14:36:04;22.00;99.90
8214;DHT22;4148;47.974;7.824;2023-09-30T14:38:33;21.90;99.90
8214;DHT22;4148;47.974;7.824;2023-09-30T14:41:01;21.90;99.90
8214;DHT22;4148;47.974;7.824;2023-09-30T14:43:29;21.80;99.90
8214;DHT22;4148;47.974;7.824;2023-09-30T14:45:57;21.70;99.90
8214;DHT22;4148;47.974;7.824;2023-09-30T14:48:25;21.70;99.90
8214;DHT22;4148;47.974;7.824;2023-09-30T14:50:54;21.70;99.90
8214;DHT22;4148;47.974;7.824;2023-09-30T14:53:23;21.60;99.90
8214;DHT22;4148;47.974;7.824;2023-09-30T14:55:51;21.60;99.90
8214;DHT22;4148;47.974;7.824;2023-09-30T14:58:19;21.60;99.90
8214;DHT22;4148;47.974;7.824;2023-09-30T15:00:47;21.60;99.90
8214;DHT22;4148;47.974;7.824;2023-09-30T15:03:15;21.60;99.90
8214;DHT22;4148;47.974;7.824;2023-09-30T15:05:43;21.50;99.90
8214;DHT22;4148;47.974;7.824;2023-09-30T15:08:12;21.50;99.90
8214;DHT22;4148;47.974;7.824;2023-09-30T15:10:40;21.40;99.90
8214;DHT22;4148;47.974;7.824;2023-09-30T15:13:08;21.40;99.90
8214;DHT22;4148;47.974;7.824;2023-09-30T15:15:36;21.30;99.90
8214;DHT22;4148;47.974;7.824;2023-09-30T15:18:04;21.20;99.90
8214;DHT22;4148;47.974;7.824;2023-09-30T15:20:38;21.20;99.90
8214;DHT22;4148;47.974;7.824;2023-09-30T15:23:06;21.10;99.90
8214;DHT22;4148;47.974;7.824;2023-09-30T15:25:39;21.10;99.90
8214;DHT22;4148;47.974;7.824;2023-09-30T15:28:08;21.10;99.90
8214;DHT22;4148;47.974;7.824;2023-09-30T15:30:36;21.00;99.90
8214;DHT22;4148;47.974;7.824;2023-09-30T15:33:04;20.90;99.90
8214;DHT22;4148;47.974;7.824;2023-09-30T15:35:32;20.90;99.90
8214;DHT22;4148;47.974;7.824;2023-09-30T15:38:01;20.80;99.90
8214;DHT22;4148;47.974;7.824;2023-09-30T15:40:28;20.70;99.90
8214;DHT22;4148;47.974;7.824;2023-09-30T15:42:58;20.60;99.90
8214;DHT22;4148;47.974;7.824;2023-09-30T15:45:26;20.60;99.90
8214;DHT22;4148;47.974;7.824;2023-09-30T15:47:54;20.50;99.90
8214;DHT22;4148;47.974;7.824;2023-09-30T15:50:22;20.40;99.90
8214;DHT22;4148;47.974;7.824;2023-09-30T15:52:50;20.30;99.90
8214;DHT22;4148;47.974;7.824;2023-09-30T15:55:18;20.20;99.90
8214;DHT22;4148;47.974;7.824;2023-09-30T15:57:46;20.20;99.90
8214;DHT22;4148;47.974;7.824;2023-09-30T16:00:16;20.20;99.90
8214;DHT22;4148;47.974;7.824;2023-09-30T16:02:44;20.10;99.90
8214;DHT22;4148;47.974;7.824;2023-09-30T16:05:12;20.10;1.00
8214;DHT22;4148;47.974;7.824;2023-09-30T16:07:40;20.00;1.00
8214;DHT22;4148;47.974;7.824;2023-09-30T16:10:09;19.90;99.90
8214;DHT22;4148;47.974;7.824;2023-09-30T16:12:37;19.80;99.90
8214;DHT22;4148;47.974;7.824;2023-09-30T16:15:06;19.70;37.30
8214;DHT22;4148;47.974;7.824;2023-09-30T16:17:39;19.60;86.10
8214;DHT22;4148;47.974;7.824;2023-09-30T16:20:07;19.50;99.90
8214;DHT22;4148;47.974;7.824;2023-09-30T16:22:36;19.40;99.90
8214;DHT22;4148;47.974;7.824;2023-09-30T16:25:05;19.30;1.00